createdAt,value
2019-03-26T00:00:20.119Z,0.00
2019-03-26T00:01:20.111Z,0.00
2019-03-26T00:02:20.099Z,0.00
2019-03-26T00:03:20.089Z,0.00
2019-03-26T00:04:20.089Z,0.00
2019-03-26T00:05:20.386Z,0.00
2019-03-26T00:06:20.068Z,0.00
2019-03-26T00:07:20.328Z,0.00
2019-03-26T00:08:20.988Z,0.00
2019-03-26T00:09:20.038Z,0.00
2019-03-26T00:10:20.018Z,0.00
2019-03-26T00:11:20.051Z,0.00
2019-03-26T00:12:19.997Z,0.00
2019-03-26T00:13:19.990Z,0.00
2019-03-26T00:14:20.757Z,0.00
2019-03-26T00:15:19.968Z,0.00
2019-03-26T00:16:19.960Z,0.00
2019-03-26T00:17:19.997Z,0.00
2019-03-26T00:18:19.951Z,0.00
2019-03-26T00:19:19.929Z,0.00
2019-03-26T00:20:19.916Z,0.00
2019-03-26T00:21:20.345Z,0.00
2019-03-26T00:22:19.906Z,0.00
2019-03-26T00:23:19.953Z,0.00
2019-03-26T00:24:20.509Z,0.00
2019-03-26T00:25:19.865Z,0.00
2019-03-26T00:26:20.512Z,0.00
2019-03-26T00:27:20.505Z,0.00
2019-03-26T00:28:20.116Z,0.00
2019-03-26T00:29:19.874Z,0.00
2019-03-26T00:30:19.823Z,0.00
2019-03-26T00:31:19.804Z,0.00
2019-03-26T00:32:19.795Z,0.00
2019-03-26T00:33:19.792Z,0.00
2019-03-26T00:34:19.942Z,0.00
2019-03-26T00:35:20.085Z,0.00
2019-03-26T00:36:19.808Z,0.00
2019-03-26T00:37:19.744Z,0.00
2019-03-26T00:38:19.755Z,0.00
2019-03-26T00:39:19.724Z,0.00
2019-03-26T00:40:19.747Z,0.00
2019-03-26T00:41:19.763Z,0.00
2019-03-26T00:42:19.974Z,0.00
2019-03-26T00:43:19.683Z,0.00
2019-03-26T00:44:19.678Z,0.00
2019-03-26T00:45:19.703Z,0.00
2019-03-26T00:46:19.652Z,0.00
2019-03-26T00:47:19.683Z,0.00
2019-03-26T00:48:19.630Z,0.00
2019-03-26T00:49:19.914Z,0.00
2019-03-26T00:50:19.661Z,0.00
2019-03-26T00:51:19.599Z,0.00
2019-03-26T00:52:19.591Z,0.00
2019-03-26T00:53:19.618Z,0.00
2019-03-26T00:54:19.569Z,0.00
2019-03-26T00:55:22.821Z,0.00
2019-03-26T00:56:19.839Z,0.00
2019-03-26T00:57:19.539Z,0.00
2019-03-26T00:58:19.531Z,0.00
2019-03-26T00:59:19.580Z,0.00
2019-03-26T01:00:19.510Z,0.00
2019-03-26T01:01:19.500Z,0.00
2019-03-26T01:02:19.489Z,0.00
2019-03-26T01:03:19.751Z,0.00
2019-03-26T01:04:31.839Z,0.00
2019-03-26T01:05:20.500Z,0.00
2019-03-26T01:06:19.448Z,0.00
2019-03-26T01:07:19.440Z,0.00
2019-03-26T01:08:19.429Z,0.00
2019-03-26T01:09:19.419Z,0.00
2019-03-26T01:10:19.709Z,0.00
2019-03-26T01:11:19.439Z,0.00
2019-03-26T01:12:19.379Z,0.00
2019-03-26T01:13:19.383Z,0.00
2019-03-26T01:14:19.372Z,0.00
2019-03-26T01:15:19.366Z,0.00
2019-03-26T01:16:19.340Z,0.00
2019-03-26T01:17:19.859Z,0.00
2019-03-26T01:18:19.335Z,0.00
2019-03-26T01:19:19.329Z,0.00
2019-03-26T01:20:19.308Z,0.00
2019-03-26T01:21:19.288Z,0.00
2019-03-26T01:22:19.280Z,0.00
2019-03-26T01:23:19.396Z,0.00
2019-03-26T01:24:20.477Z,0.00
2019-03-26T01:25:19.247Z,0.00
2019-03-26T01:26:19.247Z,0.00
2019-03-26T01:27:19.227Z,0.00
2019-03-26T01:28:19.227Z,0.00
2019-03-26T01:29:19.256Z,0.00
2019-03-26T01:30:19.206Z,0.00
2019-03-26T01:31:19.187Z,0.00
2019-03-26T01:32:19.176Z,0.00
2019-03-26T01:33:19.166Z,0.00
2019-03-26T01:34:19.156Z,0.00
2019-03-26T01:35:19.206Z,0.00
2019-03-26T01:36:19.136Z,0.00
2019-03-26T01:37:19.417Z,0.00
2019-03-26T01:38:19.123Z,0.00
2019-03-26T01:39:19.116Z,0.00
2019-03-26T01:40:19.105Z,0.00
2019-03-26T01:41:19.135Z,0.00
2019-03-26T01:42:19.076Z,0.00
2019-03-26T01:43:19.065Z,0.00
2019-03-26T01:44:19.336Z,0.00
2019-03-26T01:45:19.047Z,0.00
2019-03-26T01:46:19.108Z,0.00
2019-03-26T01:47:19.075Z,0.00
2019-03-26T01:48:19.015Z,0.00
2019-03-26T01:49:19.004Z,0.00
2019-03-26T01:50:18.994Z,0.00
2019-03-26T01:51:19.262Z,0.00
2019-03-26T01:52:18.975Z,0.00
2019-03-26T01:53:20.435Z,0.00
2019-03-26T01:54:18.954Z,0.00
2019-03-26T01:55:18.942Z,0.00
2019-03-26T01:56:18.932Z,0.00
2019-03-26T01:57:18.938Z,0.00
2019-03-26T01:58:18.913Z,0.00
2019-03-26T01:59:18.937Z,0.00
2019-03-26T02:00:18.883Z,0.00
2019-03-26T02:01:18.872Z,0.00
2019-03-26T02:02:18.871Z,0.00
2019-03-26T02:03:19.180Z,0.00
2019-03-26T02:04:18.894Z,0.00
2019-03-26T02:05:18.939Z,0.00
2019-03-26T02:06:18.842Z,0.00
2019-03-26T02:07:18.813Z,0.00
2019-03-26T02:08:18.803Z,0.00
2019-03-26T02:09:19.081Z,0.00
2019-03-26T02:10:18.789Z,0.00
2019-03-26T02:11:18.969Z,0.00
2019-03-26T02:12:18.767Z,0.00
2019-03-26T02:13:18.751Z,0.00
2019-03-26T02:14:18.742Z,0.00
2019-03-26T02:15:18.730Z,0.00
2019-03-26T02:16:18.724Z,0.00
2019-03-26T02:17:18.747Z,0.00
2019-03-26T02:18:18.701Z,0.00
2019-03-26T02:19:18.691Z,0.00
2019-03-26T02:20:18.690Z,0.00
2019-03-26T02:21:18.950Z,0.00
2019-03-26T02:22:18.667Z,0.00
2019-03-26T02:23:18.692Z,0.00
2019-03-26T02:24:18.638Z,0.00
2019-03-26T02:25:18.627Z,0.00
2019-03-26T02:26:18.623Z,0.00
2019-03-26T02:27:18.608Z,0.00
2019-03-26T02:28:18.869Z,0.00
2019-03-26T02:29:18.649Z,0.00
2019-03-26T02:30:18.571Z,0.00
2019-03-26T02:31:18.563Z,0.00
2019-03-26T02:32:18.555Z,0.00
2019-03-26T02:33:18.551Z,0.00
2019-03-26T02:34:18.528Z,0.00
2019-03-26T02:35:19.450Z,0.00
2019-03-26T02:36:18.509Z,0.00
2019-03-26T02:37:18.497Z,0.00
2019-03-26T02:38:18.491Z,0.00
2019-03-26T02:39:18.487Z,0.00
2019-03-26T02:40:18.485Z,0.00
2019-03-26T02:41:18.498Z,0.00
2019-03-26T02:42:18.727Z,0.00
2019-03-26T02:43:18.438Z,0.00
2019-03-26T02:44:18.445Z,0.00
2019-03-26T02:45:18.417Z,0.00
2019-03-26T02:46:18.409Z,0.00
2019-03-26T02:47:18.556Z,0.00
2019-03-26T02:48:18.389Z,0.00
2019-03-26T02:49:18.666Z,0.00
2019-03-26T02:50:18.369Z,0.00
2019-03-26T02:51:18.363Z,0.00
2019-03-26T02:52:18.345Z,0.00
2019-03-26T02:53:18.368Z,0.00
2019-03-26T02:54:18.327Z,0.00
2019-03-26T02:55:18.325Z,0.00
2019-03-26T02:56:18.586Z,0.00
2019-03-26T02:57:18.412Z,0.00
2019-03-26T02:58:18.289Z,0.00
2019-03-26T02:59:18.306Z,0.00
2019-03-26T03:01:34.949Z,0.00
2019-03-26T03:02:34.490Z,0.00
2019-03-26T03:03:34.484Z,0.00
2019-03-26T03:04:34.534Z,0.00
2019-03-26T03:05:36.179Z,0.00
2019-03-26T03:06:34.470Z,0.00
2019-03-26T03:07:34.439Z,0.00
2019-03-26T03:08:34.710Z,0.00
2019-03-26T03:09:34.409Z,0.00
2019-03-26T03:10:34.447Z,0.00
2019-03-26T03:11:34.396Z,0.00
2019-03-26T03:12:34.379Z,0.00
2019-03-26T03:13:34.377Z,0.00
2019-03-26T03:14:34.358Z,0.00
2019-03-26T03:15:34.658Z,0.00
2019-03-26T03:16:34.379Z,0.00
2019-03-26T03:17:34.328Z,0.00
2019-03-26T03:18:34.328Z,0.00
2019-03-26T03:19:34.329Z,0.00
2019-03-26T03:20:34.319Z,0.00
2019-03-26T03:21:34.288Z,0.00
2019-03-26T03:22:34.976Z,0.00
2019-03-26T03:23:34.267Z,0.00
2019-03-26T03:24:34.267Z,0.00
2019-03-26T03:25:34.247Z,0.00
2019-03-26T03:26:34.242Z,0.00
2019-03-26T03:27:34.229Z,0.00
2019-03-26T03:28:34.399Z,0.00
2019-03-26T03:29:34.484Z,0.00
2019-03-26T03:30:34.199Z,0.00
2019-03-26T03:31:34.184Z,0.00
2019-03-26T03:32:34.174Z,0.00
2019-03-26T03:33:34.171Z,0.00
2019-03-26T03:34:34.208Z,0.00
2019-03-26T03:35:50.814Z,0.00
2019-03-26T03:36:35.136Z,0.00
2019-03-26T03:37:34.134Z,0.00
2019-03-26T03:38:34.115Z,0.00
2019-03-26T03:39:34.104Z,0.00
2019-03-26T03:40:34.145Z,0.00
2019-03-26T03:41:34.090Z,0.00
2019-03-26T03:42:34.390Z,0.00
2019-03-26T03:43:34.055Z,0.00
2019-03-26T03:44:34.050Z,0.00
2019-03-26T03:45:34.034Z,0.00
2019-03-26T03:46:34.066Z,0.00
2019-03-26T03:47:34.043Z,0.00
2019-03-26T03:48:34.005Z,0.00
2019-03-26T03:49:34.273Z,0.00
2019-03-26T03:50:33.982Z,0.00
2019-03-26T03:51:33.982Z,0.00
2019-03-26T03:52:34.001Z,0.00
2019-03-26T03:53:33.958Z,0.00
2019-03-26T03:54:33.965Z,0.00
2019-03-26T03:55:33.932Z,0.00
2019-03-26T03:56:34.192Z,0.00
2019-03-26T03:57:33.912Z,0.00
2019-03-26T03:58:34.212Z,0.00
2019-03-26T03:59:33.892Z,0.00
2019-03-26T04:00:33.871Z,0.00
2019-03-26T04:01:33.869Z,0.00
2019-03-26T04:02:33.866Z,0.00
2019-03-26T04:03:34.121Z,0.00
2019-03-26T04:04:33.868Z,0.00
2019-03-26T04:05:33.831Z,0.00
2019-03-26T04:06:33.811Z,0.00
2019-03-26T04:07:33.821Z,0.00
2019-03-26T04:08:33.801Z,0.00
2019-03-26T04:09:33.781Z,0.00
2019-03-26T04:10:34.089Z,0.00
2019-03-26T04:11:33.762Z,0.00
2019-03-26T04:12:33.751Z,0.00
2019-03-26T04:13:33.749Z,0.00
2019-03-26T04:14:33.730Z,0.00
2019-03-26T04:15:35.125Z,0.00
2019-03-26T04:16:33.775Z,0.00
2019-03-26T04:17:33.978Z,0.00
2019-03-26T04:18:33.690Z,0.00
2019-03-26T04:19:33.689Z,0.00
2019-03-26T04:20:33.676Z,0.00
2019-03-26T04:21:33.670Z,0.00
2019-03-26T04:22:33.694Z,0.00
2019-03-26T04:23:33.647Z,0.00
2019-03-26T04:24:33.898Z,0.00
2019-03-26T04:25:33.614Z,0.00
2019-03-26T04:26:33.598Z,0.00
2019-03-26T04:27:33.588Z,0.00
2019-03-26T04:28:33.614Z,0.00
2019-03-26T04:29:33.567Z,0.00
2019-03-26T04:30:33.556Z,0.00
2019-03-26T04:31:33.546Z,0.00
2019-03-26T04:32:33.537Z,0.00
2019-03-26T04:33:33.525Z,0.00
2019-03-26T04:34:33.585Z,0.00
2019-03-26T04:35:33.517Z,0.00
2019-03-26T04:36:33.493Z,0.00
2019-03-26T04:37:33.764Z,0.00
2019-03-26T04:38:33.476Z,0.00
2019-03-26T04:39:33.462Z,0.00
2019-03-26T04:40:33.497Z,0.00
2019-03-26T04:41:33.443Z,0.00
2019-03-26T04:42:33.434Z,0.00
2019-03-26T04:43:33.421Z,0.00
2019-03-26T04:44:33.424Z,0.00
2019-03-26T04:45:33.403Z,0.00
2019-03-26T04:46:33.423Z,0.00
2019-03-26T04:47:33.383Z,0.00
2019-03-26T04:48:33.363Z,0.00
2019-03-26T04:49:33.712Z,0.00
2019-03-26T04:50:33.352Z,0.00
2019-03-26T04:51:33.333Z,0.00
2019-03-26T04:52:33.382Z,0.00
2019-03-26T04:53:34.315Z,0.00
2019-03-26T04:54:33.302Z,0.00
2019-03-26T04:55:33.303Z,0.00
2019-03-26T04:56:33.317Z,0.00
2019-03-26T04:57:33.673Z,0.00
2019-03-26T04:58:33.301Z,0.00
2019-03-26T04:59:33.291Z,0.00
2019-03-26T05:00:33.286Z,0.00
2019-03-26T05:01:34.152Z,0.00
2019-03-26T05:02:33.241Z,0.00
2019-03-26T05:03:34.040Z,0.00
2019-03-26T05:04:33.230Z,0.00
2019-03-26T05:05:33.191Z,0.00
2019-03-26T05:06:38.230Z,0.00
2019-03-26T05:07:34.450Z,0.00
2019-03-26T05:08:33.158Z,0.00
2019-03-26T05:09:33.151Z,0.00
2019-03-26T05:10:33.429Z,0.00
2019-03-26T05:11:33.120Z,0.00
2019-03-26T05:12:33.109Z,0.00
2019-03-26T05:13:33.099Z,0.00
2019-03-26T05:14:33.372Z,0.00
2019-03-26T05:15:33.090Z,0.00
2019-03-26T05:16:33.108Z,0.00
2019-03-26T05:17:33.058Z,0.00
2019-03-26T05:18:33.052Z,0.00
2019-03-26T05:19:33.038Z,0.00
2019-03-26T05:20:33.026Z,0.00
2019-03-26T05:21:33.317Z,0.00
2019-03-26T05:22:33.046Z,0.00
2019-03-26T05:23:34.105Z,0.00
2019-03-26T05:24:32.989Z,0.00
2019-03-26T05:25:32.997Z,0.00
2019-03-26T05:26:32.963Z,0.00
2019-03-26T05:27:44.911Z,0.00
2019-03-26T05:28:34.017Z,0.00
2019-03-26T05:29:32.927Z,0.00
2019-03-26T05:30:33.289Z,0.00
2019-03-26T05:31:32.915Z,0.00
2019-03-26T05:32:33.478Z,5.62
2019-03-26T05:33:32.895Z,5.62
2019-03-26T05:34:33.253Z,5.62
2019-03-26T05:35:32.865Z,5.62
2019-03-26T05:36:32.863Z,5.62
2019-03-26T05:37:32.855Z,5.62
2019-03-26T05:38:32.875Z,5.62
2019-03-26T05:39:32.824Z,5.62
2019-03-26T05:40:32.855Z,5.62
2019-03-26T05:41:33.092Z,5.62
2019-03-26T05:42:32.794Z,5.62
2019-03-26T05:43:32.782Z,5.62
2019-03-26T05:44:32.833Z,5.62
2019-03-26T05:45:32.771Z,5.62
2019-03-26T05:46:32.799Z,5.62
2019-03-26T05:47:32.743Z,5.62
2019-03-26T05:48:33.022Z,5.62
2019-03-26T05:49:32.725Z,11.25
2019-03-26T05:50:32.724Z,11.25
2019-03-26T05:51:32.702Z,11.25
2019-03-26T05:52:32.734Z,11.25
2019-03-26T05:53:32.681Z,11.25
2019-03-26T05:54:32.882Z,11.25
2019-03-26T05:55:32.974Z,11.25
2019-03-26T05:56:32.881Z,11.25
2019-03-26T05:57:32.782Z,11.25
2019-03-26T05:58:32.792Z,11.25
2019-03-26T05:59:32.831Z,16.88
2019-03-26T06:00:32.620Z,16.88
2019-03-26T06:01:32.600Z,16.88
2019-03-26T06:02:32.582Z,22.50
2019-03-26T06:03:32.591Z,22.50
2019-03-26T06:04:32.630Z,22.50
2019-03-26T06:05:32.552Z,22.50
2019-03-26T06:06:32.540Z,22.50
2019-03-26T06:07:32.831Z,22.50
2019-03-26T06:08:32.830Z,22.50
2019-03-26T06:09:32.517Z,22.50
2019-03-26T06:10:32.561Z,22.50
2019-03-26T06:11:32.508Z,22.50
2019-03-26T06:12:32.479Z,28.12
2019-03-26T06:13:32.520Z,28.12
2019-03-26T06:14:32.480Z,28.12
2019-03-26T06:15:32.460Z,28.12
2019-03-26T06:16:38.357Z,33.75
2019-03-26T06:17:33.420Z,39.38
2019-03-26T06:18:32.429Z,45.00
2019-03-26T06:19:32.788Z,45.00
2019-03-26T06:20:32.578Z,50.62
2019-03-26T06:21:32.553Z,50.62
2019-03-26T06:22:32.488Z,50.62
2019-03-26T06:23:32.368Z,61.88
2019-03-26T06:24:32.557Z,61.88
2019-03-26T06:25:32.338Z,50.62
2019-03-26T06:26:32.351Z,50.62
2019-03-26T06:27:32.347Z,45.00
2019-03-26T06:28:32.346Z,45.00
2019-03-26T06:29:32.529Z,45.00
2019-03-26T06:30:32.416Z,39.38
2019-03-26T06:31:32.756Z,39.38
2019-03-26T06:32:32.274Z,39.38
2019-03-26T06:33:32.256Z,39.38
2019-03-26T06:34:32.276Z,39.38
2019-03-26T06:35:32.235Z,39.38
2019-03-26T06:36:32.225Z,45.00
2019-03-26T06:37:32.214Z,45.00
2019-03-26T06:38:33.723Z,45.00
2019-03-26T06:39:32.196Z,45.00
2019-03-26T06:40:32.233Z,39.38
2019-03-26T06:41:32.294Z,39.38
2019-03-26T06:42:32.184Z,39.38
2019-03-26T06:43:32.286Z,39.38
2019-03-26T06:44:32.158Z,39.38
2019-03-26T06:45:32.617Z,39.38
2019-03-26T06:46:32.152Z,45.00
2019-03-26T06:47:32.105Z,50.62
2019-03-26T06:48:33.354Z,50.62
2019-03-26T06:49:32.144Z,61.88
2019-03-26T06:50:32.584Z,67.50
2019-03-26T06:51:32.063Z,67.50
2019-03-26T06:52:32.944Z,67.50
2019-03-26T06:53:32.771Z,67.50
2019-03-26T06:54:32.042Z,67.50
2019-03-26T06:55:32.019Z,67.50
2019-03-26T06:56:32.197Z,61.88
2019-03-26T06:57:35.931Z,56.25
2019-03-26T06:58:32.086Z,56.25
2019-03-26T06:59:32.284Z,50.62
2019-03-26T07:00:32.012Z,50.62
2019-03-26T07:01:31.962Z,56.25
2019-03-26T07:02:31.951Z,61.88
2019-03-26T07:03:31.988Z,56.25
2019-03-26T07:04:31.975Z,61.88
2019-03-26T07:05:31.943Z,67.50
2019-03-26T07:06:32.401Z,73.12
2019-03-26T07:07:32.192Z,84.38
2019-03-26T07:08:31.908Z,84.38
2019-03-26T07:09:32.242Z,84.38
2019-03-26T07:10:31.929Z,84.38
2019-03-26T07:11:32.090Z,73.12
2019-03-26T07:12:32.922Z,73.12
2019-03-26T07:13:32.238Z,67.50
2019-03-26T07:14:31.839Z,61.88
2019-03-26T07:15:31.821Z,67.50
2019-03-26T07:16:32.100Z,78.75
2019-03-26T07:17:31.839Z,84.38
2019-03-26T07:18:31.800Z,90.00
2019-03-26T07:19:31.870Z,67.50
2019-03-26T07:20:31.807Z,67.50
2019-03-26T07:21:31.756Z,67.50
2019-03-26T07:22:32.172Z,61.88
2019-03-26T07:23:31.783Z,50.62
2019-03-26T07:24:32.502Z,45.00
2019-03-26T07:25:31.756Z,39.38
2019-03-26T07:26:33.218Z,39.38
2019-03-26T07:27:31.678Z,39.38
2019-03-26T07:28:31.783Z,39.38
2019-03-26T07:29:32.017Z,39.38
2019-03-26T07:30:31.657Z,45.00
2019-03-26T07:31:31.646Z,56.25
2019-03-26T07:32:31.781Z,67.50
2019-03-26T07:33:31.917Z,67.50
2019-03-26T07:34:31.687Z,67.50
2019-03-26T07:35:31.627Z,73.12
2019-03-26T07:36:31.636Z,78.75
2019-03-26T07:37:44.111Z,95.62
2019-03-26T07:38:32.576Z,84.38
2019-03-26T07:39:32.404Z,90.00
2019-03-26T07:40:31.663Z,84.38
2019-03-26T07:41:31.545Z,90.00
2019-03-26T07:42:31.566Z,95.62
2019-03-26T07:43:31.518Z,101.25
2019-03-26T07:44:31.545Z,95.62
2019-03-26T07:45:31.968Z,90.00
2019-03-26T07:46:31.577Z,90.00
2019-03-26T07:47:31.680Z,95.62
2019-03-26T07:48:31.557Z,95.62
2019-03-26T07:49:31.507Z,101.25
2019-03-26T07:50:31.445Z,95.62
2019-03-26T07:51:31.498Z,101.25
2019-03-26T07:52:31.761Z,112.50
2019-03-26T07:53:31.426Z,106.88
2019-03-26T07:54:32.730Z,101.25
2019-03-26T07:55:31.865Z,78.75
2019-03-26T07:56:32.359Z,67.50
2019-03-26T07:57:32.763Z,61.88
2019-03-26T07:58:33.218Z,50.62
2019-03-26T07:59:35.642Z,50.62
2019-03-26T08:00:31.353Z,56.25
2019-03-26T08:01:31.424Z,67.50
2019-03-26T08:02:31.332Z,73.12
2019-03-26T08:03:33.100Z,84.38
2019-03-26T08:04:31.372Z,101.25
2019-03-26T08:05:31.433Z,123.75
2019-03-26T08:06:32.053Z,129.38
2019-03-26T08:07:31.281Z,129.38
2019-03-26T08:08:31.841Z,101.25
2019-03-26T08:09:31.796Z,90.00
2019-03-26T08:10:31.769Z,73.12
2019-03-26T08:11:31.240Z,90.00
2019-03-26T08:12:32.821Z,123.75
2019-03-26T08:13:31.268Z,140.62
2019-03-26T08:14:31.344Z,135.00
2019-03-26T08:15:31.222Z,129.38
2019-03-26T08:16:31.229Z,140.62
2019-03-26T08:17:31.613Z,180.00
2019-03-26T08:18:31.155Z,151.88
2019-03-26T08:19:31.191Z,185.62
2019-03-26T08:20:31.133Z,298.12
2019-03-26T08:21:31.130Z,326.25
2019-03-26T08:22:31.140Z,500.62
2019-03-26T08:23:31.224Z,556.88
2019-03-26T08:24:31.970Z,528.75
2019-03-26T08:25:33.750Z,517.50
2019-03-26T08:26:31.069Z,517.50
2019-03-26T08:27:31.059Z,551.25
2019-03-26T08:28:32.939Z,753.75
2019-03-26T08:29:31.988Z,911.25
2019-03-26T08:30:31.779Z,978.75
2019-03-26T08:31:31.029Z,1001.25
2019-03-26T08:32:31.976Z,1040.62
2019-03-26T08:33:31.042Z,1029.38
2019-03-26T08:34:31.008Z,1012.50
2019-03-26T08:35:31.517Z,1023.75
2019-03-26T08:36:31.628Z,1158.75
2019-03-26T08:37:32.716Z,1170.00
2019-03-26T08:38:33.355Z,1186.88
2019-03-26T08:39:32.425Z,1158.75
2019-03-26T08:40:31.438Z,1153.12
2019-03-26T08:41:31.494Z,337.50
2019-03-26T08:42:30.900Z,326.25
2019-03-26T08:43:31.548Z,1310.62
2019-03-26T08:44:31.385Z,523.12
2019-03-26T08:45:30.911Z,388.12
2019-03-26T08:46:31.453Z,264.38
2019-03-26T08:47:30.842Z,225.00
2019-03-26T08:48:30.850Z,219.38
2019-03-26T08:49:31.144Z,208.12
2019-03-26T08:50:31.128Z,225.00
2019-03-26T08:51:31.668Z,438.75
2019-03-26T08:52:31.065Z,174.38
2019-03-26T08:53:30.940Z,219.38
2019-03-26T08:54:31.642Z,196.88
2019-03-26T08:55:32.247Z,247.50
2019-03-26T08:56:32.478Z,303.75
2019-03-26T08:57:31.038Z,382.50
2019-03-26T08:58:31.516Z,691.88
2019-03-26T08:59:31.183Z,326.25
2019-03-26T09:00:32.053Z,151.88
2019-03-26T09:01:30.947Z,90.00
2019-03-26T09:02:30.887Z,78.75
2019-03-26T09:03:31.186Z,73.12
2019-03-26T09:04:31.667Z,73.12
2019-03-26T09:05:31.087Z,67.50
2019-03-26T09:06:30.779Z,67.50
2019-03-26T09:07:31.144Z,90.00
2019-03-26T09:08:30.627Z,78.75
2019-03-26T09:09:30.607Z,73.12
2019-03-26T09:10:30.625Z,73.12
2019-03-26T09:11:30.578Z,73.12
2019-03-26T09:12:30.573Z,73.12
2019-03-26T09:13:30.655Z,73.12
2019-03-26T09:14:30.776Z,67.50
2019-03-26T09:15:30.986Z,61.88
2019-03-26T09:16:30.566Z,56.25
2019-03-26T09:17:30.520Z,50.62
2019-03-26T09:18:30.525Z,45.00
2019-03-26T09:19:30.492Z,45.00
2019-03-26T09:20:30.496Z,45.00
2019-03-26T09:21:32.679Z,50.62
2019-03-26T09:22:30.536Z,50.62
2019-03-26T09:23:30.456Z,56.25
2019-03-26T09:24:30.448Z,56.25
2019-03-26T09:25:30.431Z,61.88
2019-03-26T09:26:30.424Z,78.75
2019-03-26T09:27:30.404Z,106.88
2019-03-26T09:28:31.728Z,112.50
2019-03-26T09:29:30.393Z,135.00
2019-03-26T09:30:30.434Z,123.75
2019-03-26T09:31:31.064Z,129.38
2019-03-26T09:32:30.363Z,140.62
2019-03-26T09:33:30.347Z,118.12
2019-03-26T09:34:30.385Z,112.50
2019-03-26T09:35:31.088Z,106.88
2019-03-26T09:36:30.378Z,101.25
2019-03-26T09:37:30.304Z,112.50
2019-03-26T09:38:38.788Z,135.00
2019-03-26T09:39:31.347Z,135.00
2019-03-26T09:40:31.103Z,118.12
2019-03-26T09:41:30.469Z,129.38
2019-03-26T09:42:30.329Z,135.00
2019-03-26T09:43:30.253Z,135.00
2019-03-26T09:44:30.243Z,135.00
2019-03-26T09:45:30.274Z,129.38
2019-03-26T09:46:31.019Z,129.38
2019-03-26T09:47:30.460Z,135.00
2019-03-26T09:48:30.455Z,140.62
2019-03-26T09:49:30.399Z,151.88
2019-03-26T09:50:30.935Z,180.00
2019-03-26T09:51:30.843Z,196.88
2019-03-26T09:52:30.155Z,202.50
2019-03-26T09:53:30.141Z,196.88
2019-03-26T09:54:30.243Z,168.75
2019-03-26T09:55:30.132Z,129.38
2019-03-26T09:56:32.155Z,118.12
2019-03-26T09:57:30.129Z,95.62
2019-03-26T09:58:30.953Z,118.12
2019-03-26T09:59:30.065Z,140.62
2019-03-26T10:00:30.607Z,135.00
2019-03-26T10:01:30.042Z,168.75
2019-03-26T10:02:31.690Z,185.62
2019-03-26T10:03:31.241Z,174.38
2019-03-26T10:04:30.564Z,157.50
2019-03-26T10:05:29.999Z,140.62
2019-03-26T10:06:29.991Z,140.62
2019-03-26T10:07:29.991Z,123.75
2019-03-26T10:08:30.006Z,123.75
2019-03-26T10:09:30.143Z,135.00
2019-03-26T10:10:29.980Z,135.00
2019-03-26T10:11:29.937Z,140.62
2019-03-26T10:12:30.358Z,129.38
2019-03-26T10:13:29.909Z,118.12
2019-03-26T10:14:29.923Z,112.50
2019-03-26T10:15:30.120Z,112.50
2019-03-26T10:16:29.990Z,146.25
2019-03-26T10:17:29.911Z,196.88
2019-03-26T10:18:29.878Z,225.00
2019-03-26T10:19:30.718Z,281.25
2019-03-26T10:20:29.891Z,315.00
2019-03-26T10:21:30.078Z,337.50
2019-03-26T10:22:30.080Z,388.12
2019-03-26T10:23:29.855Z,421.88
2019-03-26T10:24:29.842Z,382.50
2019-03-26T10:25:29.846Z,343.12
2019-03-26T10:26:30.158Z,315.00
2019-03-26T10:27:29.796Z,286.88
2019-03-26T10:28:29.816Z,236.25
2019-03-26T10:29:31.240Z,191.25
2019-03-26T10:30:30.071Z,180.00
2019-03-26T10:31:29.753Z,180.00
2019-03-26T10:32:30.164Z,180.00
2019-03-26T10:33:29.822Z,168.75
2019-03-26T10:34:29.785Z,163.12
2019-03-26T10:35:30.569Z,146.25
2019-03-26T10:36:45.084Z,118.12
2019-03-26T10:37:32.267Z,112.50
2019-03-26T10:38:29.832Z,101.25
2019-03-26T10:39:34.857Z,84.38
2019-03-26T10:40:32.573Z,78.75
2019-03-26T10:41:31.497Z,78.75
2019-03-26T10:42:29.631Z,84.38
2019-03-26T10:43:31.908Z,112.50
2019-03-26T10:44:29.596Z,135.00
2019-03-26T10:45:29.614Z,146.25
2019-03-26T10:46:29.968Z,135.00
2019-03-26T10:47:29.675Z,151.88
2019-03-26T10:48:31.876Z,225.00
2019-03-26T10:49:29.558Z,191.25
2019-03-26T10:50:29.576Z,129.38
2019-03-26T10:51:29.656Z,135.00
2019-03-26T10:52:34.010Z,118.12
2019-03-26T10:53:31.757Z,129.38
2019-03-26T10:54:29.494Z,135.00
2019-03-26T10:55:29.475Z,163.12
2019-03-26T10:56:32.438Z,157.50
2019-03-26T10:57:29.569Z,129.38
2019-03-26T10:58:29.444Z,101.25
2019-03-26T10:59:29.446Z,90.00
2019-03-26T11:00:29.751Z,73.12
2019-03-26T11:01:29.916Z,61.88
2019-03-26T11:02:29.528Z,67.50
2019-03-26T11:03:29.484Z,67.50
2019-03-26T11:04:29.386Z,61.88
2019-03-26T11:05:30.478Z,56.25
2019-03-26T11:06:29.347Z,56.25
2019-03-26T11:07:30.914Z,56.25
2019-03-26T11:08:32.382Z,56.25
2019-03-26T11:09:31.900Z,61.88
2019-03-26T11:10:29.304Z,56.25
2019-03-26T11:11:29.866Z,50.62
2019-03-26T11:12:30.618Z,45.00
2019-03-26T11:13:29.822Z,39.38
2019-03-26T11:14:31.794Z,39.38
2019-03-26T11:15:29.521Z,39.38
2019-03-26T11:16:29.232Z,39.38
2019-03-26T11:17:29.250Z,45.00
2019-03-26T11:18:30.585Z,56.25
2019-03-26T11:19:30.588Z,56.25
2019-03-26T11:20:29.193Z,56.25
2019-03-26T11:21:29.321Z,73.12
2019-03-26T11:22:29.191Z,73.12
2019-03-26T11:23:29.179Z,73.12
2019-03-26T11:24:29.164Z,78.75
2019-03-26T11:25:29.179Z,67.50
2019-03-26T11:26:29.470Z,73.12
2019-03-26T11:27:30.592Z,67.50
2019-03-26T11:28:30.361Z,73.12
2019-03-26T11:29:29.349Z,78.75
2019-03-26T11:30:30.406Z,78.75
2019-03-26T11:31:30.260Z,67.50
2019-03-26T11:32:29.308Z,78.75
2019-03-26T11:33:29.280Z,84.38
2019-03-26T11:34:29.379Z,73.12
2019-03-26T11:35:29.048Z,67.50
2019-03-26T11:36:29.126Z,67.50
2019-03-26T11:37:29.030Z,73.12
2019-03-26T11:38:29.015Z,90.00
2019-03-26T11:39:33.017Z,90.00
2019-03-26T11:40:28.992Z,90.00
2019-03-26T11:41:29.548Z,90.00
2019-03-26T11:42:30.328Z,84.38
2019-03-26T11:43:29.489Z,78.75
2019-03-26T11:44:29.446Z,84.38
2019-03-26T11:45:28.987Z,84.38
2019-03-26T11:46:28.977Z,84.38
2019-03-26T11:47:28.929Z,78.75
2019-03-26T11:48:29.707Z,78.75
2019-03-26T11:49:28.896Z,84.38
2019-03-26T11:50:30.105Z,84.38
2019-03-26T11:51:29.446Z,78.75
2019-03-26T11:52:29.500Z,67.50
2019-03-26T11:53:29.337Z,67.50
2019-03-26T11:54:29.075Z,50.62
2019-03-26T11:55:29.208Z,45.00
2019-03-26T11:56:28.818Z,39.38
2019-03-26T11:57:28.935Z,39.38
2019-03-26T11:58:30.943Z,39.38
2019-03-26T11:59:28.784Z,39.38
2019-03-26T12:00:29.789Z,50.62
2019-03-26T12:01:29.767Z,56.25
2019-03-26T12:02:29.790Z,56.25
2019-03-26T12:03:30.798Z,67.50
2019-03-26T12:04:30.510Z,73.12
2019-03-26T12:05:32.731Z,90.00
2019-03-26T12:06:30.376Z,90.00
2019-03-26T12:07:29.087Z,90.00
2019-03-26T12:08:29.126Z,101.25
2019-03-26T12:09:29.899Z,90.00
2019-03-26T12:10:29.063Z,90.00
2019-03-26T12:11:30.026Z,95.62
2019-03-26T12:12:28.655Z,95.62
2019-03-26T12:13:29.191Z,95.62
2019-03-26T12:14:30.350Z,84.38
2019-03-26T12:15:29.165Z,78.75
2019-03-26T12:16:29.691Z,78.75
2019-03-26T12:17:28.874Z,78.75
2019-03-26T12:18:29.312Z,78.75
2019-03-26T12:19:28.691Z,78.75
2019-03-26T12:20:32.602Z,78.75
2019-03-26T12:21:30.115Z,78.75
2019-03-26T12:22:31.317Z,73.12
2019-03-26T12:23:29.855Z,67.50
2019-03-26T12:24:28.911Z,56.25
2019-03-26T12:25:29.494Z,39.38
2019-03-26T12:26:28.496Z,39.38
2019-03-26T12:27:29.394Z,33.75
2019-03-26T12:28:29.252Z,33.75
2019-03-26T12:29:29.853Z,39.38
2019-03-26T12:30:28.854Z,39.38
2019-03-26T12:31:28.474Z,39.38
2019-03-26T12:32:28.442Z,50.62
2019-03-26T12:33:28.593Z,39.38
2019-03-26T12:34:28.430Z,33.75
2019-03-26T12:35:28.463Z,33.75
2019-03-26T12:36:39.382Z,45.00
2019-03-26T12:37:29.563Z,39.38
2019-03-26T12:38:29.134Z,50.62
2019-03-26T12:39:28.633Z,61.88
2019-03-26T12:40:28.932Z,67.50
2019-03-26T12:41:28.722Z,78.75
2019-03-26T12:42:28.532Z,61.88
2019-03-26T12:43:28.776Z,50.62
2019-03-26T12:44:29.874Z,50.62
2019-03-26T12:45:28.884Z,50.62
2019-03-26T12:46:28.976Z,61.88
2019-03-26T12:47:28.316Z,67.50
2019-03-26T12:48:28.293Z,73.12
2019-03-26T12:49:30.761Z,73.12
2019-03-26T12:50:32.187Z,50.62
2019-03-26T12:51:29.317Z,39.38
2019-03-26T12:52:29.200Z,45.00
2019-03-26T12:53:29.603Z,56.25
2019-03-26T12:54:28.200Z,67.50
2019-03-26T12:55:28.489Z,61.88
2019-03-26T12:56:28.169Z,56.25
2019-03-26T12:57:28.759Z,61.88
2019-03-26T12:58:32.539Z,67.50
2019-03-26T12:59:29.149Z,78.75